Otterup, Denmark
Current Conditions -  °F | °C
As of 9:50 PM on Thursday 27 Nov 2014 (Local Time) from EKSB Reporting Station
Broken Clouds Broken Clouds  
Wind Chill: 31°   Ceiling: 2200
Heat Index: 41°   Visibility: 6mi
Dew Point: 36°   Wind: 22mph
Humidity: 81%   Direction: 120°ESE
Pressure: 30"   Gusts: NA
Location:  55.52°N, 10.4°E
Report Text: EKSB 272050Z 12019KT 9999 BKN022 05/02 Q1016
Loading
Personal Weather Stations






























Interactive Weather Map New forecast layout! Learn more

10-Day Weather Forecast

Advertisements
Track Severe Weather on mobile